sensor_id;sensor_type;location;lat;lon;timestamp;temperature;humidity
5930;DHT22;2990;48.746;9.236;2023-08-06T00:42:01;15.30;99.90
5930;DHT22;2990;48.746;9.236;2023-08-06T00:44:26;14.60;99.90
5930;DHT22;2990;48.746;9.236;2023-08-06T01:21:21;14.50;99.90
5930;DHT22;2990;48.746;9.236;2023-08-06T01:23:47;14.20;99.90
5930;DHT22;2990;48.746;9.236;2023-08-06T01:28:56;14.20;99.90
5930;DHT22;2990;48.746;9.236;2023-08-06T01:31:29;14.20;99.90
5930;DHT22;2990;48.746;9.236;2023-08-06T01:33:56;14.10;99.90
5930;DHT22;2990;48.746;9.236;2023-08-06T01:36:23;14.10;99.90
5930;DHT22;2990;48.746;9.236;2023-08-06T01:38:54;14.10;99.90
5930;DHT22;2990;48.746;9.236;2023-08-06T01:41:19;14.00;99.90
5930;DHT22;2990;48.746;9.236;2023-08-06T01:43:45;14.00;99.90
5930;DHT22;2990;48.746;9.236;2023-08-06T01:46:10;14.00;99.90
5930;DHT22;2990;48.746;9.236;2023-08-06T01:48:36;14.00;99.90
5930;DHT22;2990;48.746;9.236;2023-08-06T01:51:04;14.00;99.90
5930;DHT22;2990;48.746;9.236;2023-08-06T01:53:31;14.00;99.90
5930;DHT22;2990;48.746;9.236;2023-08-06T01:55:57;13.90;99.90
5930;DHT22;2990;48.746;9.236;2023-08-06T01:58:23;14.00;99.90
5930;DHT22;2990;48.746;9.236;2023-08-06T02:00:48;13.90;99.90
5930;DHT22;2990;48.746;9.236;2023-08-06T02:03:14;13.70;99.90
5930;DHT22;2990;48.746;9.236;2023-08-06T02:05:40;13.80;99.90
5930;DHT22;2990;48.746;9.236;2023-08-06T02:08:05;13.80;99.90
5930;DHT22;2990;48.746;9.236;2023-08-06T02:10:31;13.80;99.90
5930;DHT22;2990;48.746;9.236;2023-08-06T02:12:57;13.80;99.90
5930;DHT22;2990;48.746;9.236;2023-08-06T02:15:22;13.80;99.90
5930;DHT22;2990;48.746;9.236;2023-08-06T02:17:48;13.80;99.90
5930;DHT22;2990;48.746;9.236;2023-08-06T02:20:13;13.70;99.90
5930;DHT22;2990;48.746;9.236;2023-08-06T02:22:39;13.70;99.90
5930;DHT22;2990;48.746;9.236;2023-08-06T02:25:05;13.60;99.90
5930;DHT22;2990;48.746;9.236;2023-08-06T02:27:30;13.60;99.90
5930;DHT22;2990;48.746;9.236;2023-08-06T02:29:56;13.60;99.90
5930;DHT22;2990;48.746;9.236;2023-08-06T02:32:21;13.60;99.90
5930;DHT22;2990;48.746;9.236;2023-08-06T02:34:47;13.50;99.90
5930;DHT22;2990;48.746;9.236;2023-08-06T02:37:12;13.50;99.90
5930;DHT22;2990;48.746;9.236;2023-08-06T02:39:38;13.50;99.90
5930;DHT22;2990;48.746;9.236;2023-08-06T02:42:06;13.50;99.90
5930;DHT22;2990;48.746;9.236;2023-08-06T02:44:33;13.40;99.90
5930;DHT22;2990;48.746;9.236;2023-08-06T02:46:59;13.40;99.90
5930;DHT22;2990;48.746;9.236;2023-08-06T02:49:24;13.50;99.90
5930;DHT22;2990;48.746;9.236;2023-08-06T02:51:50;13.30;99.90
5930;DHT22;2990;48.746;9.236;2023-08-06T02:54:16;13.20;99.90
5930;DHT22;2990;48.746;9.236;2023-08-06T02:56:45;13.20;99.90
5930;DHT22;2990;48.746;9.236;2023-08-06T02:59:11;13.10;99.90
5930;DHT22;2990;48.746;9.236;2023-08-06T03:01:36;13.10;99.90
5930;DHT22;2990;48.746;9.236;2023-08-06T03:04:02;13.00;99.90
5930;DHT22;2990;48.746;9.236;2023-08-06T03:06:28;13.00;99.90
5930;DHT22;2990;48.746;9.236;2023-08-06T03:08:54;13.00;99.90
5930;DHT22;2990;48.746;9.236;2023-08-06T03:11:19;13.00;99.90
5930;DHT22;2990;48.746;9.236;2023-08-06T03:13:45;13.00;99.90
5930;DHT22;2990;48.746;9.236;2023-08-06T03:16:10;13.00;99.90
5930;DHT22;2990;48.746;9.236;2023-08-06T03:18:36;13.00;99.90
5930;DHT22;2990;48.746;9.236;2023-08-06T03:21:01;13.00;99.90
5930;DHT22;2990;48.746;9.236;2023-08-06T03:23:27;13.00;99.90
5930;DHT22;2990;48.746;9.236;2023-08-06T03:25:52;13.00;99.90
5930;DHT22;2990;48.746;9.236;2023-08-06T03:28:18;13.00;99.90
5930;DHT22;2990;48.746;9.236;2023-08-06T03:30:44;13.00;99.90
5930;DHT22;2990;48.746;9.236;2023-08-06T03:33:09;13.10;99.90
5930;DHT22;2990;48.746;9.236;2023-08-06T03:35:35;13.10;99.90
5930;DHT22;2990;48.746;9.236;2023-08-06T03:38:00;13.10;99.90
5930;DHT22;2990;48.746;9.236;2023-08-06T03:40:26;13.10;99.90
5930;DHT22;2990;48.746;9.236;2023-08-06T03:42:51;13.20;99.90
5930;DHT22;2990;48.746;9.236;2023-08-06T03:45:17;13.10;99.90
5930;DHT22;2990;48.746;9.236;2023-08-06T03:47:43;13.20;99.90
5930;DHT22;2990;48.746;9.236;2023-08-06T03:50:08;13.20;99.90
5930;DHT22;2990;48.746;9.236;2023-08-06T03:52:34;13.10;99.90
5930;DHT22;2990;48.746;9.236;2023-08-06T03:55:00;13.20;99.90
5930;DHT22;2990;48.746;9.236;2023-08-06T03:57:25;13.10;99.90
5930;DHT22;2990;48.746;9.236;2023-08-06T03:59:51;13.10;99.90
5930;DHT22;2990;48.746;9.236;2023-08-06T04:02:16;13.10;99.90
5930;DHT22;2990;48.746;9.236;2023-08-06T04:04:42;13.10;99.90
5930;DHT22;2990;48.746;9.236;2023-08-06T04:07:07;13.10;99.90
5930;DHT22;2990;48.746;9.236;2023-08-06T04:09:33;13.10;99.90
5930;DHT22;2990;48.746;9.236;2023-08-06T04:11:58;13.10;99.90
5930;DHT22;2990;48.746;9.236;2023-08-06T04:14:27;13.00;99.90
5930;DHT22;2990;48.746;9.236;2023-08-06T04:16:53;13.10;99.90
5930;DHT22;2990;48.746;9.236;2023-08-06T04:19:18;13.10;99.90
5930;DHT22;2990;48.746;9.236;2023-08-06T04:21:44;13.10;99.90
5930;DHT22;2990;48.746;9.236;2023-08-06T04:24:09;13.10;99.90
5930;DHT22;2990;48.746;9.236;2023-08-06T04:26:35;13.20;99.90
5930;DHT22;2990;48.746;9.236;2023-08-06T04:29:00;13.20;99.90
5930;DHT22;2990;48.746;9.236;2023-08-06T04:31:26;13.20;99.90
5930;DHT22;2990;48.746;9.236;2023-08-06T04:33:51;13.20;99.90
5930;DHT22;2990;48.746;9.236;2023-08-06T04:36:17;13.20;99.90
5930;DHT22;2990;48.746;9.236;2023-08-06T04:38:42;13.30;99.90
5930;DHT22;2990;48.746;9.236;2023-08-06T04:41:10;13.30;99.90
5930;DHT22;2990;48.746;9.236;2023-08-06T04:43:36;13.30;99.90
5930;DHT22;2990;48.746;9.236;2023-08-06T04:46:02;13.30;99.90
5930;DHT22;2990;48.746;9.236;2023-08-06T04:48:28;13.30;99.90
5930;DHT22;2990;48.746;9.236;2023-08-06T04:50:53;13.30;99.90
5930;DHT22;2990;48.746;9.236;2023-08-06T04:53:19;13.30;99.90
5930;DHT22;2990;48.746;9.236;2023-08-06T04:55:45;13.30;99.90
5930;DHT22;2990;48.746;9.236;2023-08-06T04:58:12;13.30;99.90
5930;DHT22;2990;48.746;9.236;2023-08-06T05:00:38;13.40;99.90
5930;DHT22;2990;48.746;9.236;2023-08-06T05:03:04;13.40;99.90
5930;DHT22;2990;48.746;9.236;2023-08-06T05:05:30;13.40;99.90
5930;DHT22;2990;48.746;9.236;2023-08-06T05:07:57;13.40;99.90
5930;DHT22;2990;48.746;9.236;2023-08-06T05:10:24;13.30;99.90
5930;DHT22;2990;48.746;9.236;2023-08-06T05:12:50;13.40;99.90
5930;DHT22;2990;48.746;9.236;2023-08-06T05:15:16;13.50;99.90
5930;DHT22;2990;48.746;9.236;2023-08-06T05:17:41;13.50;99.90
5930;DHT22;2990;48.746;9.236;2023-08-06T05:20:07;13.50;99.90
5930;DHT22;2990;48.746;9.236;2023-08-06T05:22:33;13.50;99.90
5930;DHT22;2990;48.746;9.236;2023-08-06T05:24:58;13.50;99.90
5930;DHT22;2990;48.746;9.236;2023-08-06T05:27:24;13.50;99.90
5930;DHT22;2990;48.746;9.236;2023-08-06T05:29:49;13.40;99.90
5930;DHT22;2990;48.746;9.236;2023-08-06T05:32:15;13.40;99.90
5930;DHT22;2990;48.746;9.236;2023-08-06T05:34:40;13.40;99.90
5930;DHT22;2990;48.746;9.236;2023-08-06T05:37:07;13.50;99.90
5930;DHT22;2990;48.746;9.236;2023-08-06T05:39:32;13.60;99.90
5930;DHT22;2990;48.746;9.236;2023-08-06T05:41:58;13.80;99.90
5930;DHT22;2990;48.746;9.236;2023-08-06T05:44:23;13.90;99.90
5930;DHT22;2990;48.746;9.236;2023-08-06T05:46:49;13.90;99.90
5930;DHT22;2990;48.746;9.236;2023-08-06T05:49:15;14.00;99.20
5930;DHT22;2990;48.746;9.236;2023-08-06T05:51:41;14.00;85.90
5930;DHT22;2990;48.746;9.236;2023-08-06T05:54:07;14.10;59.00
5930;DHT22;2990;48.746;9.236;2023-08-06T05:56:32;14.10;40.10
5930;DHT22;2990;48.746;9.236;2023-08-06T05:58:58;14.20;25.30
5930;DHT22;2990;48.746;9.236;2023-08-06T06:01:23;14.10;16.50
5930;DHT22;2990;48.746;9.236;2023-08-06T06:03:49;14.00;4.50
5930;DHT22;2990;48.746;9.236;2023-08-06T06:06:15;14.00;1.00
5930;DHT22;2990;48.746;9.236;2023-08-06T06:08:41;14.00;1.00
5930;DHT22;2990;48.746;9.236;2023-08-06T06:11:07;14.00;3.80
5930;DHT22;2990;48.746;9.236;2023-08-06T06:13:33;14.00;3.90
5930;DHT22;2990;48.746;9.236;2023-08-06T06:15:58;14.00;5.20
5930;DHT22;2990;48.746;9.236;2023-08-06T06:18:24;14.00;1.00
5930;DHT22;2990;48.746;9.236;2023-08-06T06:20:49;14.00;6.50
5930;DHT22;2990;48.746;9.236;2023-08-06T06:23:15;14.00;12.90
5930;DHT22;2990;48.746;9.236;2023-08-06T06:25:47;14.00;32.50
5930;DHT22;2990;48.746;9.236;2023-08-06T06:28:13;14.00;45.70
5930;DHT22;2990;48.746;9.236;2023-08-06T06:30:40;14.00;40.20
5930;DHT22;2990;48.746;9.236;2023-08-06T06:33:06;14.00;27.10
5930;DHT22;2990;48.746;9.236;2023-08-06T06:35:31;14.00;14.40
5930;DHT22;2990;48.746;9.236;2023-08-06T06:37:57;14.00;3.70
5930;DHT22;2990;48.746;9.236;2023-08-06T06:40:22;14.00;6.00
5930;DHT22;2990;48.746;9.236;2023-08-06T06:42:48;14.00;4.20
5930;DHT22;2990;48.746;9.236;2023-08-06T06:45:14;14.00;1.00
5930;DHT22;2990;48.746;9.236;2023-08-06T06:47:39;14.00;1.00
5930;DHT22;2990;48.746;9.236;2023-08-06T06:50:05;14.00;1.00
5930;DHT22;2990;48.746;9.236;2023-08-06T06:52:31;14.00;1.00
5930;DHT22;2990;48.746;9.236;2023-08-06T06:54:57;14.10;1.00
5930;DHT22;2990;48.746;9.236;2023-08-06T06:57:22;14.00;1.00
5930;DHT22;2990;48.746;9.236;2023-08-06T07:00:06;14.00;3.10
5930;DHT22;2990;48.746;9.236;2023-08-06T07:02:32;14.00;29.90
5930;DHT22;2990;48.746;9.236;2023-08-06T07:04:57;14.00;49.70
5930;DHT22;2990;48.746;9.236;2023-08-06T07:07:23;14.00;72.60
5930;DHT22;2990;48.746;9.236;2023-08-06T07:09:48;14.00;94.50
5930;DHT22;2990;48.746;9.236;2023-08-06T07:12:14;13.90;99.90
5930;DHT22;2990;48.746;9.236;2023-08-06T07:14:39;14.00;99.90
5930;DHT22;2990;48.746;9.236;2023-08-06T07:17:05;14.00;99.90
5930;DHT22;2990;48.746;9.236;2023-08-06T07:19:31;14.10;99.90
5930;DHT22;2990;48.746;9.236;2023-08-06T07:21:56;14.00;99.90
5930;DHT22;2990;48.746;9.236;2023-08-06T07:24:22;13.90;99.90
5930;DHT22;2990;48.746;9.236;2023-08-06T07:26:47;13.80;99.90
5930;DHT22;2990;48.746;9.236;2023-08-06T07:29:13;13.80;99.90
5930;DHT22;2990;48.746;9.236;2023-08-06T07:31:50;13.70;99.90
5930;DHT22;2990;48.746;9.236;2023-08-06T07:34:57;13.70;99.90
5930;DHT22;2990;48.746;9.236;2023-08-06T07:37:49;13.60;99.90
5930;DHT22;2990;48.746;9.236;2023-08-06T07:40:39;13.50;99.90
5930;DHT22;2990;48.746;9.236;2023-08-06T07:43:10;13.50;99.90
5930;DHT22;2990;48.746;9.236;2023-08-06T07:49:14;13.40;99.90
5930;DHT22;2990;48.746;9.236;2023-08-06T07:52:01;13.40;99.90
5930;DHT22;2990;48.746;9.236;2023-08-06T07:54:34;13.50;99.90
5930;DHT22;2990;48.746;9.236;2023-08-06T07:57:07;13.70;99.90
5930;DHT22;2990;48.746;9.236;2023-08-06T08:00:06;13.60;99.90
5930;DHT22;2990;48.746;9.236;2023-08-06T08:02:41;13.70;99.90
5930;DHT22;2990;48.746;9.236;2023-08-06T08:05:09;13.80;99.90
5930;DHT22;2990;48.746;9.236;2023-08-06T08:07:37;13.80;99.90
5930;DHT22;2990;48.746;9.236;2023-08-06T08:10:14;13.80;99.90
5930;DHT22;2990;48.746;9.236;2023-08-06T08:12:40;13.90;99.90
5930;DHT22;2990;48.746;9.236;2023-08-06T08:15:05;13.90;99.90
5930;DHT22;2990;48.746;9.236;2023-08-06T08:17:31;14.00;99.90
5930;DHT22;2990;48.746;9.236;2023-08-06T08:19:57;14.00;99.90
5930;DHT22;2990;48.746;9.236;2023-08-06T08:22:25;14.00;99.90
5930;DHT22;2990;48.746;9.236;2023-08-06T08:24:51;14.10;99.90
5930;DHT22;2990;48.746;9.236;2023-08-06T08:27:17;14.30;99.90
5930;DHT22;2990;48.746;9.236;2023-08-06T08:29:48;14.40;99.90
5930;DHT22;2990;48.746;9.236;2023-08-06T08:32:22;14.40;99.90
5930;DHT22;2990;48.746;9.236;2023-08-06T08:34:50;14.40;99.90
5930;DHT22;2990;48.746;9.236;2023-08-06T08:37:15;14.50;99.90
5930;DHT22;2990;48.746;9.236;2023-08-06T08:40:01;14.60;99.90
5930;DHT22;2990;48.746;9.236;2023-08-06T08:42:38;14.80;97.20
5930;DHT22;2990;48.746;9.236;2023-08-06T08:45:04;14.80;43.40
5930;DHT22;2990;48.746;9.236;2023-08-06T08:47:45;14.80;44.20
5930;DHT22;2990;48.746;9.236;2023-08-06T08:50:12;14.70;1.00
5930;DHT22;2990;48.746;9.236;2023-08-06T08:52:40;14.80;1.00
5930;DHT22;2990;48.746;9.236;2023-08-06T08:55:07;14.80;1.00
5930;DHT22;2990;48.746;9.236;2023-08-06T08:57:33;14.80;1.00
5930;DHT22;2990;48.746;9.236;2023-08-06T08:59:58;14.70;1.00
5930;DHT22;2990;48.746;9.236;2023-08-06T09:02:27;14.70;1.00
5930;DHT22;2990;48.746;9.236;2023-08-06T09:04:57;14.70;1.00
5930;DHT22;2990;48.746;9.236;2023-08-06T09:07:25;14.80;1.00
5930;DHT22;2990;48.746;9.236;2023-08-06T09:09:52;15.00;1.00
5930;DHT22;2990;48.746;9.236;2023-08-06T09:12:18;14.90;2.40
5930;DHT22;2990;48.746;9.236;2023-08-06T09:14:44;15.00;15.80
5930;DHT22;2990;48.746;9.236;2023-08-06T09:17:10;15.00;1.00
5930;DHT22;2990;48.746;9.236;2023-08-06T09:19:36;14.90;1.00
5930;DHT22;2990;48.746;9.236;2023-08-06T09:22:05;14.90;1.00
5930;DHT22;2990;48.746;9.236;2023-08-06T09:24:39;15.00;1.00
5930;DHT22;2990;48.746;9.236;2023-08-06T09:27:10;15.10;1.00
5930;DHT22;2990;48.746;9.236;2023-08-06T09:29:43;15.10;1.00
5930;DHT22;2990;48.746;9.236;2023-08-06T09:32:15;15.10;1.00
5930;DHT22;2990;48.746;9.236;2023-08-06T09:34:56;15.10;1.00
5930;DHT22;2990;48.746;9.236;2023-08-06T09:37:28;15.10;1.00
5930;DHT22;2990;48.746;9.236;2023-08-06T09:40:28;15.10;1.00
5930;DHT22;2990;48.746;9.236;2023-08-06T09:42:54;15.10;1.00
5930;DHT22;2990;48.746;9.236;2023-08-06T09:45:49;15.00;1.00
5930;DHT22;2990;48.746;9.236;2023-08-06T09:52:02;15.00;1.00
5930;DHT22;2990;48.746;9.236;2023-08-06T09:54:29;15.10;1.00
5930;DHT22;2990;48.746;9.236;2023-08-06T09:56:58;15.20;1.00
5930;DHT22;2990;48.746;9.236;2023-08-06T10:02:34;15.30;1.00
5930;DHT22;2990;48.746;9.236;2023-08-06T10:05:00;15.30;1.00
5930;DHT22;2990;48.746;9.236;2023-08-06T10:07:35;15.50;1.00
5930;DHT22;2990;48.746;9.236;2023-08-06T10:10:05;15.30;1.00
5930;DHT22;2990;48.746;9.236;2023-08-06T10:12:52;15.30;1.00
5930;DHT22;2990;48.746;9.236;2023-08-06T10:15:28;15.20;1.00
5930;DHT22;2990;48.746;9.236;2023-08-06T10:17:56;15.10;1.00
5930;DHT22;2990;48.746;9.236;2023-08-06T10:20:23;15.00;1.00
5930;DHT22;2990;48.746;9.236;2023-08-06T10:23:11;14.90;7.30
5930;DHT22;2990;48.746;9.236;2023-08-06T10:26:02;15.00;53.80
5930;DHT22;2990;48.746;9.236;2023-08-06T10:28:50;14.70;95.10
5930;DHT22;2990;48.746;9.236;2023-08-06T10:32:02;14.60;99.90
5930;DHT22;2990;48.746;9.236;2023-08-06T10:35:03;14.60;99.90
5930;DHT22;2990;48.746;9.236;2023-08-06T10:37:38;14.50;99.90
5930;DHT22;2990;48.746;9.236;2023-08-06T10:40:36;14.60;99.90
5930;DHT22;2990;48.746;9.236;2023-08-06T10:43:45;14.70;99.90
5930;DHT22;2990;48.746;9.236;2023-08-06T10:46:22;14.70;99.90
5930;DHT22;2990;48.746;9.236;2023-08-06T10:48:56;14.60;99.90
5930;DHT22;2990;48.746;9.236;2023-08-06T10:51:34;14.50;99.90
5930;DHT22;2990;48.746;9.236;2023-08-06T10:54:41;14.60;99.90
5930;DHT22;2990;48.746;9.236;2023-08-06T10:57:22;14.70;99.90
5930;DHT22;2990;48.746;9.236;2023-08-06T11:00:00;14.70;99.90
5930;DHT22;2990;48.746;9.236;2023-08-06T11:02:28;14.80;99.90
5930;DHT22;2990;48.746;9.236;2023-08-06T11:05:11;14.80;99.90
5930;DHT22;2990;48.746;9.236;2023-08-06T11:07:39;14.80;99.90
5930;DHT22;2990;48.746;9.236;2023-08-06T11:10:24;14.80;43.00
5930;DHT22;2990;48.746;9.236;2023-08-06T11:12:53;14.80;43.10
5930;DHT22;2990;48.746;9.236;2023-08-06T11:15:34;14.90;71.20
5930;DHT22;2990;48.746;9.236;2023-08-06T11:18:00;14.70;93.40
5930;DHT22;2990;48.746;9.236;2023-08-06T11:20:25;14.70;99.90
5930;DHT22;2990;48.746;9.236;2023-08-06T11:22:54;14.50;97.60
5930;DHT22;2990;48.746;9.236;2023-08-06T11:25:26;14.40;99.90
5930;DHT22;2990;48.746;9.236;2023-08-06T11:28:06;14.40;99.90
5930;DHT22;2990;48.746;9.236;2023-08-06T11:30:34;14.20;99.90
5930;DHT22;2990;48.746;9.236;2023-08-06T11:33:02;14.20;99.90
5930;DHT22;2990;48.746;9.236;2023-08-06T11:35:36;14.20;99.90
5930;DHT22;2990;48.746;9.236;2023-08-06T11:38:20;14.20;99.90
5930;DHT22;2990;48.746;9.236;2023-08-06T11:40:47;14.40;99.90
5930;DHT22;2990;48.746;9.236;2023-08-06T11:43:13;14.50;99.90
5930;DHT22;2990;48.746;9.236;2023-08-06T11:45:39;14.50;77.80
5930;DHT22;2990;48.746;9.236;2023-08-06T11:48:08;14.50;7.50
5930;DHT22;2990;48.746;9.236;2023-08-06T11:50:37;14.40;12.30
5930;DHT22;2990;48.746;9.236;2023-08-06T11:53:06;14.40;1.00
5930;DHT22;2990;48.746;9.236;2023-08-06T11:58:35;14.30;1.00
5930;DHT22;2990;48.746;9.236;2023-08-06T12:01:39;14.20;1.00
5930;DHT22;2990;48.746;9.236;2023-08-06T12:04:27;14.10;1.00
5930;DHT22;2990;48.746;9.236;2023-08-06T12:06:52;14.00;1.00
5930;DHT22;2990;48.746;9.236;2023-08-06T12:09:18;14.00;1.00
5930;DHT22;2990;48.746;9.236;2023-08-06T12:11:54;13.90;1.00
5930;DHT22;2990;48.746;9.236;2023-08-06T12:14:26;13.90;1.00
5930;DHT22;2990;48.746;9.236;2023-08-06T12:16:52;13.80;1.00
5930;DHT22;2990;48.746;9.236;2023-08-06T12:19:24;13.70;1.00
5930;DHT22;2990;48.746;9.236;2023-08-06T12:21:53;13.80;1.00
5930;DHT22;2990;48.746;9.236;2023-08-06T12:24:28;13.80;1.00
5930;DHT22;2990;48.746;9.236;2023-08-06T12:27:02;13.80;1.00
5930;DHT22;2990;48.746;9.236;2023-08-06T12:29:34;13.80;1.00
5930;DHT22;2990;48.746;9.236;2023-08-06T12:32:05;13.80;1.00
5930;DHT22;2990;48.746;9.236;2023-08-06T12:34:38;13.90;1.00
5930;DHT22;2990;48.746;9.236;2023-08-06T12:41:21;13.90;1.00
5930;DHT22;2990;48.746;9.236;2023-08-06T12:43:47;14.00;1.00
5930;DHT22;2990;48.746;9.236;2023-08-06T12:52:46;14.20;1.00
5930;DHT22;2990;48.746;9.236;2023-08-06T12:55:12;14.40;1.00
5930;DHT22;2990;48.746;9.236;2023-08-06T12:57:37;14.50;1.00
5930;DHT22;2990;48.746;9.236;2023-08-06T13:00:06;14.60;1.00
5930;DHT22;2990;48.746;9.236;2023-08-06T13:02:32;14.70;99.90
5930;DHT22;2990;48.746;9.236;2023-08-06T13:04:58;14.80;63.70
5930;DHT22;2990;48.746;9.236;2023-08-06T13:07:23;14.90;1.00
5930;DHT22;2990;48.746;9.236;2023-08-06T13:09:49;15.00;99.90
5930;DHT22;2990;48.746;9.236;2023-08-06T13:12:14;14.90;1.00
5930;DHT22;2990;48.746;9.236;2023-08-06T13:14:40;14.80;99.90
5930;DHT22;2990;48.746;9.236;2023-08-06T13:17:06;14.90;1.00
5930;DHT22;2990;48.746;9.236;2023-08-06T13:19:32;15.00;99.90
5930;DHT22;2990;48.746;9.236;2023-08-06T13:22:00;15.20;1.00
5930;DHT22;2990;48.746;9.236;2023-08-06T13:24:34;15.30;99.90
5930;DHT22;2990;48.746;9.236;2023-08-06T13:27:00;15.40;99.90
5930;DHT22;2990;48.746;9.236;2023-08-06T13:29:40;15.50;99.90
5930;DHT22;2990;48.746;9.236;2023-08-06T13:32:11;15.50;1.00
5930;DHT22;2990;48.746;9.236;2023-08-06T13:34:46;15.50;1.00
5930;DHT22;2990;48.746;9.236;2023-08-06T13:37:32;15.50;63.90
5930;DHT22;2990;48.746;9.236;2023-08-06T13:39:58;15.50;1.00
5930;DHT22;2990;48.746;9.236;2023-08-06T13:42:47;15.40;1.00
5930;DHT22;2990;48.746;9.236;2023-08-06T13:45:21;15.30;99.90
5930;DHT22;2990;48.746;9.236;2023-08-06T13:48:22;15.30;1.00
5930;DHT22;2990;48.746;9.236;2023-08-06T13:51:00;15.30;8.40
5930;DHT22;2990;48.746;9.236;2023-08-06T13:54:01;15.20;1.00
5930;DHT22;2990;48.746;9.236;2023-08-06T13:59:38;15.30;99.90
5930;DHT22;2990;48.746;9.236;2023-08-06T14:02:12;15.20;1.00
5930;DHT22;2990;48.746;9.236;2023-08-06T14:05:00;15.40;92.30
5930;DHT22;2990;48.746;9.236;2023-08-06T14:07:39;15.40;99.90
5930;DHT22;2990;48.746;9.236;2023-08-06T14:10:08;15.40;1.00
5930;DHT22;2990;48.746;9.236;2023-08-06T14:12:34;15.50;1.00
5930;DHT22;2990;48.746;9.236;2023-08-06T14:15:06;15.60;99.90
5930;DHT22;2990;48.746;9.236;2023-08-06T14:17:31;15.60;99.90
5930;DHT22;2990;48.746;9.236;2023-08-06T14:19:57;15.60;99.90
5930;DHT22;2990;48.746;9.236;2023-08-06T14:22:29;15.60;1.00
5930;DHT22;2990;48.746;9.236;2023-08-06T14:25:04;15.60;99.90
5930;DHT22;2990;48.746;9.236;2023-08-06T14:27:38;15.60;5.10
5930;DHT22;2990;48.746;9.236;2023-08-06T14:30:06;15.60;1.00
5930;DHT22;2990;48.746;9.236;2023-08-06T14:32:32;15.60;99.90
5930;DHT22;2990;48.746;9.236;2023-08-06T14:35:00;15.50;99.90
5930;DHT22;2990;48.746;9.236;2023-08-06T14:37:34;15.50;1.00
5930;DHT22;2990;48.746;9.236;2023-08-06T14:40:13;15.50;1.00
5930;DHT22;2990;48.746;9.236;2023-08-06T14:42:48;15.50;1.00
5930;DHT22;2990;48.746;9.236;2023-08-06T14:45:16;15.50;1.00
5930;DHT22;2990;48.746;9.236;2023-08-06T14:47:42;15.30;99.90
5930;DHT22;2990;48.746;9.236;2023-08-06T14:50:14;15.20;99.90
5930;DHT22;2990;48.746;9.236;2023-08-06T14:53:05;15.20;99.90
5930;DHT22;2990;48.746;9.236;2023-08-06T14:55:34;15.00;1.10
5930;DHT22;2990;48.746;9.236;2023-08-06T14:58:27;15.00;1.00
5930;DHT22;2990;48.746;9.236;2023-08-06T15:00:58;14.80;1.00
5930;DHT22;2990;48.746;9.236;2023-08-06T15:06:33;14.80;99.90
5930;DHT22;2990;48.746;9.236;2023-08-06T15:09:14;14.80;1.00
5930;DHT22;2990;48.746;9.236;2023-08-06T15:11:52;14.80;99.90
5930;DHT22;2990;48.746;9.236;2023-08-06T15:14:21;14.70;99.90
5930;DHT22;2990;48.746;9.236;2023-08-06T15:16:56;14.70;99.90
5930;DHT22;2990;48.746;9.236;2023-08-06T15:19:28;14.80;93.50
5930;DHT22;2990;48.746;9.236;2023-08-06T15:22:12;14.90;1.00
5930;DHT22;2990;48.746;9.236;2023-08-06T15:25:12;15.10;99.90
5930;DHT22;2990;48.746;9.236;2023-08-06T15:31:20;15.50;1.00
5930;DHT22;2990;48.746;9.236;2023-08-06T15:33:56;15.50;1.00
5930;DHT22;2990;48.746;9.236;2023-08-06T15:36:35;15.50;29.10
5930;DHT22;2990;48.746;9.236;2023-08-06T15:39:17;15.50;1.00
5930;DHT22;2990;48.746;9.236;2023-08-06T15:41:45;15.80;99.90
5930;DHT22;2990;48.746;9.236;2023-08-06T15:44:37;16.10;99.90
5930;DHT22;2990;48.746;9.236;2023-08-06T15:47:29;16.20;96.30
5930;DHT22;2990;48.746;9.236;2023-08-06T15:53:27;16.10;1.00
5930;DHT22;2990;48.746;9.236;2023-08-06T16:00:05;16.30;1.00
5930;DHT22;2990;48.746;9.236;2023-08-06T16:03:03;16.40;1.00
5930;DHT22;2990;48.746;9.236;2023-08-06T16:05:32;16.30;1.00
5930;DHT22;2990;48.746;9.236;2023-08-06T16:07:57;16.40;99.90
5930;DHT22;2990;48.746;9.236;2023-08-06T16:13:52;16.10;1.00
5930;DHT22;2990;48.746;9.236;2023-08-06T16:20:10;17.30;99.90
5930;DHT22;2990;48.746;9.236;2023-08-06T16:22:59;18.50;1.00
5930;DHT22;2990;48.746;9.236;2023-08-06T16:25:39;18.40;1.00
5930;DHT22;2990;48.746;9.236;2023-08-06T16:28:15;18.60;1.00
5930;DHT22;2990;48.746;9.236;2023-08-06T16:30:48;18.00;1.00
5930;DHT22;2990;48.746;9.236;2023-08-06T16:33:16;17.20;1.00
5930;DHT22;2990;48.746;9.236;2023-08-06T16:35:44;16.70;1.00
5930;DHT22;2990;48.746;9.236;2023-08-06T16:38:12;16.30;99.90
5930;DHT22;2990;48.746;9.236;2023-08-06T16:40:38;16.00;99.90
5930;DHT22;2990;48.746;9.236;2023-08-06T16:43:51;15.80;1.00
5930;DHT22;2990;48.746;9.236;2023-08-06T16:46:49;15.40;1.00
5930;DHT22;2990;48.746;9.236;2023-08-06T16:49:23;15.20;99.90
5930;DHT22;2990;48.746;9.236;2023-08-06T16:51:52;15.20;1.00
5930;DHT22;2990;48.746;9.236;2023-08-06T16:54:17;15.10;1.00
5930;DHT22;2990;48.746;9.236;2023-08-06T16:56:43;15.00;1.00
5930;DHT22;2990;48.746;9.236;2023-08-06T16:59:09;15.00;91.10
5930;DHT22;2990;48.746;9.236;2023-08-06T17:01:37;15.00;99.90
5930;DHT22;2990;48.746;9.236;2023-08-06T17:04:04;14.90;99.90
5930;DHT22;2990;48.746;9.236;2023-08-06T17:06:36;14.70;90.30
5930;DHT22;2990;48.746;9.236;2023-08-06T17:09:04;14.50;99.90
5930;DHT22;2990;48.746;9.236;2023-08-06T17:11:31;14.20;1.00
5930;DHT22;2990;48.746;9.236;2023-08-06T17:14:00;14.10;99.90
5930;DHT22;2990;48.746;9.236;2023-08-06T17:16:25;13.90;99.90
5930;DHT22;2990;48.746;9.236;2023-08-06T17:18:51;13.90;1.00
5930;DHT22;2990;48.746;9.236;2023-08-06T17:21:17;13.90;99.90
5930;DHT22;2990;48.746;9.236;2023-08-06T17:23:42;13.90;1.00
5930;DHT22;2990;48.746;9.236;2023-08-06T17:26:08;14.00;99.90
5930;DHT22;2990;48.746;9.236;2023-08-06T17:28:34;13.80;1.00
5930;DHT22;2990;48.746;9.236;2023-08-06T17:31:01;13.90;99.90
5930;DHT22;2990;48.746;9.236;2023-08-06T17:33:27;13.90;1.00
5930;DHT22;2990;48.746;9.236;2023-08-06T17:35:55;13.80;99.90
5930;DHT22;2990;48.746;9.236;2023-08-06T17:38:21;13.90;1.00
5930;DHT22;2990;48.746;9.236;2023-08-06T17:40:53;13.90;1.00
5930;DHT22;2990;48.746;9.236;2023-08-06T17:43:19;13.80;1.00
5930;DHT22;2990;48.746;9.236;2023-08-06T17:45:45;13.80;1.00
5930;DHT22;2990;48.746;9.236;2023-08-06T17:48:13;13.70;1.00
5930;DHT22;2990;48.746;9.236;2023-08-06T17:50:43;13.60;1.00
5930;DHT22;2990;48.746;9.236;2023-08-06T17:53:09;13.60;1.00
5930;DHT22;2990;48.746;9.236;2023-08-06T17:55:35;13.60;1.00
5930;DHT22;2990;48.746;9.236;2023-08-06T17:58:01;13.60;1.00
5930;DHT22;2990;48.746;9.236;2023-08-06T18:00:26;13.60;1.00
5930;DHT22;2990;48.746;9.236;2023-08-06T18:02:55;13.50;1.00
5930;DHT22;2990;48.746;9.236;2023-08-06T18:05:22;13.50;1.00
5930;DHT22;2990;48.746;9.236;2023-08-06T18:07:49;13.40;1.00
5930;DHT22;2990;48.746;9.236;2023-08-06T18:10:18;13.40;1.00
5930;DHT22;2990;48.746;9.236;2023-08-06T18:12:44;13.40;1.00
5930;DHT22;2990;48.746;9.236;2023-08-06T18:15:11;13.40;1.00
5930;DHT22;2990;48.746;9.236;2023-08-06T18:17:37;13.20;1.00
5930;DHT22;2990;48.746;9.236;2023-08-06T18:20:12;13.20;1.00
5930;DHT22;2990;48.746;9.236;2023-08-06T18:22:37;13.20;1.00
5930;DHT22;2990;48.746;9.236;2023-08-06T18:25:07;13.10;1.00
5930;DHT22;2990;48.746;9.236;2023-08-06T18:27:33;13.10;1.00
5930;DHT22;2990;48.746;9.236;2023-08-06T18:29:59;13.10;1.00
5930;DHT22;2990;48.746;9.236;2023-08-06T18:32:28;13.00;1.00
5930;DHT22;2990;48.746;9.236;2023-08-06T18:35:14;13.00;1.00